Terminal Aerodrome Forecast
Issued by NWS Wilmington, OH

Current Version | Previous Version | Text Only | Print | Product List | Glossary Off
Versions: 1 2 3 4 5 6 7 8 9 10 11 12 13 14 15 16 17 18 19 20 21 22 23 24 25 26 27

000
FTUS41 KILN 160400 AAB
TAFCVG
TAF AMD
KCVG 160401Z 1604/1706 36006KT P6SM VCSH OVC050
     FM160600 36006KT 5SM BR VCSH OVC012
     FM160800 36008KT 4SM BR OVC006
     FM161500 01008KT P6SM OVC015
     FM161700 01008KT P6SM BKN025
     FM161900 01008KT P6SM BKN035
     FM170000 01006KT P6SM SCT035=

USA.gov is the U.S. government's official web portal to all federal, state and local government web resources and services.